Time;durP1;ratioP1;P1;durP2;ratioP2;P2;SDS_P1;SDS_P2;PMS_P1;PMS_P2;Temp;Humidity;BMP_temperature;BMP_pressure;BME280_temperature;BME280_humidity;BME280_pressure;Samples;Min_cycle;Max_cycle;Signal;HPM_P1;HPM_P2
2022/06/23 00:01:57;;;;;;;68.05;52.35;;;25.50;53.70;;;;;;4911105;28;90992;-71
2022/06/23 00:04:32;;;;;;;67.72;52.63;;;25.40;53.70;;;;;;4914533;28;89509;-71
2022/06/23 00:07:07;;;;;;;67.53;52.28;;;25.40;53.80;;;;;;4915787;28;92496;-71
2022/06/23 00:09:48;;;;;;;68.20;52.75;;;25.40;53.80;;;;;;4916361;28;91105;-71
2022/06/23 00:12:46;;;;;;;68.22;52.65;;;25.40;54.00;;;;;;4919980;28;90874;-71
2022/06/23 00:15:14;;;;;;;68.28;52.78;;;25.40;53.80;;;;;;4913444;28;91858;-71
2022/06/23 00:18:03;;;;;;;68.18;52.70;;;25.40;53.90;;;;;;4916095;28;96655;-71
2022/06/23 00:20:44;;;;;;;68.15;52.63;;;25.40;53.90;;;;;;4919707;28;90885;-71
2022/06/23 00:23:33;;;;;;;68.28;52.45;;;25.40;53.90;;;;;;4917942;28;90278;-72
2022/06/23 00:26:14;;;;;;;68.28;52.47;;;25.40;54.00;;;;;;4927137;28;89660;-72
2022/06/23 00:28:42;;;;;;;68.28;52.65;;;25.40;54.00;;;;;;4934592;28;90239;-72
2022/06/23 00:31:26;;;;;;;67.05;52.33;;;25.30;54.00;;;;;;4941924;28;91735;-71
2022/06/23 00:33:52;;;;;;;68.20;52.78;;;25.30;54.10;;;;;;4936309;28;90783;-71
2022/06/23 00:36:34;;;;;;;67.78;52.30;;;25.30;54.00;;;;;;4940912;28;90415;-71
2022/06/23 00:39:00;;;;;;;67.63;52.53;;;25.30;54.10;;;;;;4935447;28;92522;-74
2022/06/23 00:41:31;;;;;;;67.75;52.33;;;25.30;54.20;;;;;;4940645;28;90745;-71
2022/06/23 00:44:04;;;;;;;67.07;52.67;;;25.30;54.30;;;;;;4939064;28;90989;-71
2022/06/23 00:46:43;;;;;;;66.90;52.35;;;25.30;54.20;;;;;;4942505;28;89254;-71
2022/06/23 00:49:26;;;;;;;69.32;52.50;;;25.30;54.30;;;;;;4936529;28;90206;-71
2022/06/23 00:52:22;;;;;;;68.53;52.35;;;25.20;54.20;;;;;;4940203;28;89568;-71
2022/06/23 00:54:53;;;;;;;66.68;52.25;;;25.20;54.30;;;;;;4937653;28;89767;-72
2022/06/23 00:57:41;;;;;;;67.03;52.15;;;25.20;54.20;;;;;;4943442;28;90313;-71
2022/06/23 01:00:17;;;;;;;67.15;52.33;;;25.30;54.20;;;;;;4938444;28;89730;-71
2022/06/23 01:02:51;;;;;;;68.03;52.45;;;25.30;54.20;;;;;;4933759;28;91251;-71
2022/06/23 01:05:26;;;;;;;66.32;52.33;;;25.30;54.30;;;;;;4934193;28;90169;-71
2022/06/23 01:08:12;;;;;;;68.78;52.60;;;25.20;54.30;;;;;;4941596;28;91226;-71
2022/06/23 01:10:40;;;;;;;67.05;52.40;;;25.30;54.40;;;;;;4939323;28;92061;-71
2022/06/23 01:13:43;;;;;;;67.63;52.50;;;25.20;54.30;;;;;;4937403;28;91140;-71
2022/06/23 01:16:18;;;;;;;67.40;52.22;;;25.30;54.30;;;;;;4938717;28;91866;-71
2022/06/23 01:18:55;;;;;;;66.07;51.92;;;25.20;54.30;;;;;;4935209;28;89740;-71
2022/06/23 01:21:26;;;;;;;67.28;52.05;;;25.20;55.00;;;;;;4936759;28;89609;-72
2022/06/23 01:24:03;;;;;;;66.95;52.25;;;25.20;54.40;;;;;;4934474;28;89673;-71
2022/06/23 01:26:34;;;;;;;66.40;52.35;;;25.20;54.50;;;;;;4940435;28;89906;-72
2022/06/23 01:29:24;;;;;;;66.88;52.13;;;25.20;54.40;;;;;;4933093;28;89176;-71
2022/06/23 01:32:05;;;;;;;68.10;52.40;;;25.20;54.40;;;;;;4930306;28;89875;-71
2022/06/23 01:35:12;;;;;;;68.68;52.55;;;25.20;54.30;;;;;;4932843;28;90056;-70
2022/06/23 01:38:01;;;;;;;66.97;52.33;;;25.20;54.40;;;;;;4926369;28;90479;-71
2022/06/23 01:40:32;;;;;;;67.50;52.17;;;25.20;54.30;;;;;;4933852;28;91402;-71
2022/06/23 01:43:13;;;;;;;;;;;25.20;54.40;;;;;;4942946;28;91167;-71
2022/06/23 01:45:53;;;;;;;65.88;51.83;;;25.20;54.40;;;;;;4939789;28;90505;-71
2022/06/23 01:48:52;;;;;;;67.15;52.08;;;25.20;54.40;;;;;;4943989;28;90517;-71
2022/06/23 01:51:25;;;;;;;66.70;52.13;;;25.20;54.50;;;;;;4927478;28;89905;-71
2022/06/23 01:53:53;;;;;;;66.65;51.83;;;25.20;54.50;;;;;;4935783;28;90327;-71
2022/06/23 01:56:26;;;;;;;66.80;52.10;;;25.20;54.50;;;;;;4932423;28;89272;-71
2022/06/23 01:59:16;;;;;;;66.63;52.33;;;25.20;54.40;;;;;;4935406;28;90207;-71
2022/06/23 02:01:50;;;;;;;66.57;52.08;;;25.20;54.50;;;;;;4936451;28;90199;-71
2022/06/23 02:04:32;;;;;;;67.30;51.83;;;25.20;54.50;;;;;;4936636;28;92543;-71
2022/06/23 02:07:15;;;;;;;67.45;52.10;;;25.20;54.50;;;;;;4937192;28;91057;-71
2022/06/23 02:09:54;;;;;;;66.35;51.85;;;25.20;54.50;;;;;;4939505;28;91560;-71
2022/06/23 02:12:28;;;;;;;66.40;52.03;;;25.20;54.60;;;;;;4940412;28;89923;-71
2022/06/23 02:15:04;;;;;;;66.82;51.83;;;25.20;54.40;;;;;;4941176;28;90220;-71
2022/06/23 02:17:48;;;;;;;65.85;52.10;;;25.20;54.40;;;;;;4934729;28;89850;-71
2022/06/23 02:20:19;;;;;;;66.90;51.92;;;25.20;54.50;;;;;;4936407;28;91139;-71
2022/06/23 02:22:47;;;;;;;65.95;51.88;;;25.20;54.40;;;;;;4941806;28;94963;-71
2022/06/23 02:25:21;;;;;;;68.30;52.05;;;25.10;54.40;;;;;;4936596;28;90367;-72
2022/06/23 02:27:56;;;;;;;66.80;52.05;;;25.10;54.60;;;;;;4941894;28;90735;-72
2022/06/23 02:30:24;;;;;;;66.07;51.85;;;25.10;54.60;;;;;;4938832;28;92445;-71
2022/06/23 02:36:18;;;;;;;67.22;51.92;;;25.10;54.70;;;;;;4923883;28;90817;-71
2022/06/23 02:38:53;;;;;;;66.55;52.03;;;25.00;54.50;;;;;;4944159;28;90178;-71
2022/06/23 02:41:48;;;;;;;65.85;51.65;;;25.00;54.60;;;;;;4933199;28;90519;-71
2022/06/23 02:44:19;;;;;;;66.90;52.05;;;25.00;54.50;;;;;;4935336;28;92803;-71
2022/06/23 02:47:36;;;;;;;66.85;51.95;;;25.00;54.70;;;;;;4933520;28;90243;-71
2022/06/23 02:50:32;;;;;;;66.85;51.95;;;25.00;54.90;;;;;;4912399;28;94791;-71
2022/06/23 02:52:58;;;;;;;65.72;51.78;;;25.00;54.90;;;;;;4928614;28;91108;-71
2022/06/23 02:55:32;;;;;;;67.68;51.92;;;25.00;54.70;;;;;;4933446;28;89996;-72
2022/06/23 02:58:09;;;;;;;65.57;51.65;;;25.00;54.90;;;;;;4936047;28;91251;-71
2022/06/23 03:01:09;;;;;;;67.47;51.95;;;25.00;54.90;;;;;;4935273;28;92363;-71
2022/06/23 03:03:56;;;;;;;65.90;51.90;;;25.00;54.90;;;;;;4933281;28;89471;-71
2022/06/23 03:06:41;;;;;;;65.55;51.55;;;25.00;54.80;;;;;;4914866;28;91056;-71
2022/06/23 03:09:18;;;;;;;65.95;51.83;;;25.00;54.80;;;;;;4937252;28;92159;-71
2022/06/23 03:12:13;;;;;;;65.75;51.80;;;24.90;55.00;;;;;;4934309;28;90125;-71
2022/06/23 03:15:21;;;;;;;67.45;51.97;;;24.80;54.90;;;;;;4938012;28;90440;-71
2022/06/23 03:18:06;;;;;;;66.35;51.85;;;24.80;55.10;;;;;;4899017;28;90001;-71
2022/06/23 03:20:41;;;;;;;65.82;51.72;;;24.80;55.20;;;;;;4893485;28;89926;-71
2022/06/23 03:23:31;;;;;;;65.78;51.90;;;24.90;55.10;;;;;;4915784;28;91962;-71
2022/06/23 03:26:08;;;;;;;65.80;51.95;;;24.80;55.20;;;;;;4935009;28;92219;-71
2022/06/23 03:28:49;;;;;;;66.32;51.95;;;24.80;55.30;;;;;;4936186;28;90001;-71
2022/06/23 03:31:41;;;;;;;66.22;51.55;;;24.70;55.20;;;;;;4941201;28;89967;-71
2022/06/23 03:34:15;;;;;;;67.03;51.63;;;24.70;55.50;;;;;;4941963;28;89829;-71
2022/06/23 03:36:57;;;;;;;65.35;51.55;;;24.70;55.30;;;;;;4934834;28;91115;-71
2022/06/23 03:42:39;;;;;;;66.15;51.58;;;24.60;55.40;;;;;;4937826;28;89755;-71
2022/06/23 03:45:19;;;;;;;65.88;51.70;;;24.60;55.60;;;;;;4937927;28;92607;-71
2022/06/23 03:48:13;;;;;;;65.70;51.42;;;24.70;55.50;;;;;;4942553;28;90032;-71
2022/06/23 03:50:47;;;;;;;65.88;51.60;;;24.60;55.50;;;;;;4942626;28;89950;-71
2022/06/23 03:53:39;;;;;;;66.32;51.58;;;24.60;55.50;;;;;;4934166;28;93655;-71
2022/06/23 03:56:26;;;;;;;66.03;51.40;;;24.60;55.60;;;;;;4935530;28;90613;-71
2022/06/23 03:59:14;;;;;;;65.63;51.45;;;24.60;55.60;;;;;;4940393;28;89928;-70
2022/06/23 04:02:05;;;;;;;66.43;51.90;;;24.60;55.60;;;;;;4930998;28;90236;-71
2022/06/23 04:04:55;;;;;;;66.20;51.75;;;24.50;55.70;;;;;;4933678;28;92192;-71
2022/06/23 04:07:30;;;;;;;67.28;51.55;;;24.50;55.90;;;;;;4936013;28;90477;-71
2022/06/23 04:10:00;;;;;;;65.85;51.35;;;24.50;55.90;;;;;;4934108;28;90328;-71
2022/06/23 04:12:29;;;;;;;65.88;51.78;;;24.50;55.90;;;;;;4939402;28;89304;-71
2022/06/23 04:15:10;;;;;;;66.03;51.70;;;24.50;56.20;;;;;;4938109;28;90156;-71
2022/06/23 04:17:41;;;;;;;66.25;51.75;;;24.50;56.30;;;;;;4919698;28;91338;-71
2022/06/23 04:20:20;;;;;;;65.45;51.55;;;24.50;56.10;;;;;;4927519;28;91106;-71
2022/06/23 04:22:53;;;;;;;65.32;51.47;;;24.50;56.10;;;;;;4936531;28;90048;-71
2022/06/23 04:25:22;;;;;;;66.53;51.80;;;24.50;55.90;;;;;;4935721;28;90593;-71
2022/06/23 04:27:56;;;;;;;65.47;51.22;;;24.50;56.00;;;;;;4940713;28;91972;-71
2022/06/23 04:30:27;;;;;;;65.60;51.65;;;24.50;55.90;;;;;;4933944;28;90047;-70
2022/06/23 04:32:56;;;;;;;65.53;51.50;;;24.50;55.90;;;;;;4934849;28;90099;-71
2022/06/23 04:35:36;;;;;;;65.82;51.38;;;24.50;56.00;;;;;;4916418;28;91870;-71
2022/06/23 04:38:11;;;;;;;65.47;51.38;;;24.40;56.20;;;;;;4932384;28;93964;-70
2022/06/23 04:40:43;;;;;;;64.93;51.42;;;24.50;56.10;;;;;;4935882;28;90061;-71
2022/06/23 04:43:26;;;;;;;65.85;51.35;;;24.50;56.20;;;;;;4941530;28;90289;-71
2022/06/23 04:46:06;;;;;;;65.00;51.35;;;24.50;56.20;;;;;;4936430;28;91755;-70
2022/06/23 04:48:52;;;;;;;65.20;51.45;;;24.50;56.40;;;;;;4932080;28;91564;-73
2022/06/23 04:51:33;;;;;;;65.35;51.60;;;24.50;56.20;;;;;;4927394;28;90718;-73
2022/06/23 04:54:10;;;;;;;65.60;51.25;;;24.40;56.70;;;;;;4931698;28;90259;-75
2022/06/23 04:56:50;;;;;;;65.95;51.58;;;24.30;56.70;;;;;;4935463;28;90393;-74
2022/06/23 04:59:44;;;;;;;65.22;51.38;;;24.40;56.90;;;;;;4931453;28;91688;-73
2022/06/23 05:02:31;;;;;;;65.05;51.33;;;24.20;56.90;;;;;;4932086;28;97017;-73
2022/06/23 05:05:20;;;;;;;65.63;51.50;;;24.20;57.10;;;;;;4938713;28;93995;-72
2022/06/23 05:07:45;;;;;;;66.07;51.40;;;24.10;57.40;;;;;;4939005;28;90727;-72
2022/06/23 05:10:23;;;;;;;65.35;51.35;;;24.10;57.60;;;;;;4940162;28;91325;-72
2022/06/23 05:12:57;;;;;;;65.47;51.47;;;24.10;57.70;;;;;;4934980;28;90990;-72
2022/06/23 05:15:38;;;;;;;65.25;51.50;;;24.00;57.80;;;;;;4926922;28;90218;-73
2022/06/23 05:18:33;;;;;;;65.10;51.30;;;24.10;58.00;;;;;;4940501;28;89945;-73
2022/06/23 05:21:04;;;;;;;65.38;51.50;;;24.10;57.80;;;;;;4923801;28;91711;-72
2022/06/23 05:23:35;;;;;;;65.65;51.67;;;24.10;57.80;;;;;;4933962;28;91684;-72
2022/06/23 05:26:08;;;;;;;65.45;51.45;;;24.10;57.90;;;;;;4942742;28;89695;-72
2022/06/23 05:28:37;;;;;;;64.95;51.33;;;24.10;57.70;;;;;;4940375;28;89816;-72
2022/06/23 05:31:09;;;;;;;65.97;51.45;;;24.10;57.60;;;;;;4938349;28;91047;-72
2022/06/23 05:33:41;;;;;;;66.55;51.58;;;24.10;57.60;;;;;;4934944;28;91025;-72
2022/06/23 05:36:19;;;;;;;67.63;51.70;;;24.10;57.50;;;;;;4937364;28;91110;-72
2022/06/23 05:38:55;;;;;;;65.70;51.47;;;24.20;57.40;;;;;;4935709;28;90877;-73
2022/06/23 05:41:42;;;;;;;67.40;51.75;;;24.30;57.20;;;;;;4939005;28;90291;-72
2022/06/23 05:44:27;;;;;;;66.75;51.40;;;24.40;57.30;;;;;;4935337;28;91499;-72
2022/06/23 05:46:54;;;;;;;65.47;51.53;;;24.40;56.70;;;;;;4940994;28;91053;-72
2022/06/23 05:49:26;;;;;;;64.82;51.17;;;24.40;56.90;;;;;;4941391;28;90586;-71
2022/06/23 05:51:59;;;;;;;66.88;51.72;;;24.50;56.80;;;;;;4936976;28;91644;-72
2022/06/23 05:54:35;;;;;;;64.95;51.58;;;24.60;56.50;;;;;;4927768;28;89814;-72
2022/06/23 05:57:14;;;;;;;66.75;51.35;;;24.70;56.00;;;;;;4939734;28;88798;-72
2022/06/23 05:59:49;;;;;;;65.30;51.65;;;24.80;55.90;;;;;;4940104;28;90680;-72
2022/06/23 06:02:29;;;;;;;71.50;54.20;;;24.80;55.90;;;;;;4917313;28;91270;-75
2022/06/23 06:04:57;;;;;;;72.50;54.85;;;24.60;59.20;;;;;;4932282;28;90917;-75
2022/06/23 06:07:31;;;;;;;71.90;54.58;;;24.50;61.00;;;;;;4937512;28;89632;-74
2022/06/23 06:09:57;;;;;;;71.78;53.72;;;24.40;60.30;;;;;;4939875;28;90501;-75
2022/06/23 06:12:31;;;;;;;72.63;54.05;;;24.50;60.40;;;;;;4940811;28;98375;-75
2022/06/23 06:15:01;;;;;;;69.72;54.90;;;24.50;61.30;;;;;;4939373;28;89323;-75
2022/06/23 06:17:30;;;;;;;72.35;55.28;;;24.50;63.00;;;;;;4928534;28;90968;-76
2022/06/23 06:19:59;;;;;;;68.97;54.13;;;24.30;62.90;;;;;;4927871;28;91129;-75
2022/06/23 06:22:58;;;;;;;72.60;54.92;;;24.40;62.50;;;;;;4937960;28;91454;-77
2022/06/23 06:25:28;;;;;;;73.15;55.03;;;24.40;63.80;;;;;;4915832;28;90970;-76
2022/06/23 06:27:58;;;;;;;73.45;55.28;;;24.40;63.80;;;;;;4934241;28;91227;-77
2022/06/23 06:30:34;;;;;;;71.80;54.83;;;24.50;64.10;;;;;;4936161;28;90981;-77
2022/06/23 06:33:00;;;;;;;71.97;54.25;;;24.50;63.50;;;;;;4915879;28;90860;-76
2022/06/23 06:35:33;;;;;;;69.32;54.90;;;24.40;63.90;;;;;;4936813;28;92496;-75
2022/06/23 06:38:09;;;;;;;69.97;54.72;;;24.40;64.10;;;;;;4936133;28;91489;-77
2022/06/23 06:40:38;;;;;;;70.00;54.90;;;24.40;63.80;;;;;;4946846;28;91429;-77
2022/06/23 06:43:14;;;;;;;74.65;55.80;;;24.40;64.50;;;;;;4940994;28;94798;-77
2022/06/23 06:45:40;;;;;;;73.28;55.03;;;24.40;64.80;;;;;;4935562;28;90854;-77
2022/06/23 06:48:23;;;;;;;73.30;55.17;;;24.40;64.50;;;;;;4917133;28;90417;-77
2022/06/23 06:50:54;;;;;;;70.38;55.05;;;24.40;65.20;;;;;;4936591;28;90162;-78
2022/06/23 06:53:41;;;;;;;78.32;55.60;;;24.40;65.00;;;;;;4920822;28;90245;-76
2022/06/23 06:56:29;;;;;;;71.35;55.33;;;24.50;65.10;;;;;;4929154;28;92079;-76
2022/06/23 06:59:13;;;;;;;70.32;54.80;;;24.50;64.20;;;;;;4925553;28;90148;-77
2022/06/23 07:01:41;;;;;;;74.78;56.35;;;24.50;65.00;;;;;;4930260;28;89763;-75
2022/06/23 07:04:13;;;;;;;72.65;55.45;;;24.30;65.90;;;;;;4930138;28;90918;-76
2022/06/23 07:06:45;;;;;;;71.78;55.10;;;24.40;65.20;;;;;;4938549;28;91866;-76
2022/06/23 07:09:28;;;;;;;72.85;55.55;;;24.50;64.60;;;;;;4941326;28;89735;-75
2022/06/23 07:12:05;;;;;;;76.65;55.47;;;24.50;64.40;;;;;;4935015;28;92012;-75
2022/06/23 07:14:47;;;;;;;71.70;55.35;;;24.50;64.40;;;;;;4936987;28;90799;-74
2022/06/23 07:17:40;;;;;;;73.95;55.05;;;24.60;64.70;;;;;;4931795;28;89653;-77
2022/06/23 07:20:14;;;;;;;72.47;56.03;;;24.60;64.30;;;;;;4936987;28;93281;-78
2022/06/23 07:23:03;;;;;;;73.05;56.47;;;24.70;64.40;;;;;;4939656;28;92798;-76
2022/06/23 07:25:34;;;;;;;75.15;57.20;;;24.70;65.50;;;;;;4929079;28;90044;-77
2022/06/23 07:28:06;;;;;;;;;;;24.70;64.80;;;;;;4917911;28;90497;-77
2022/06/23 07:30:42;;;;;;;71.72;57.03;;;24.80;64.10;;;;;;4918565;28;89862;-79
2022/06/23 07:33:21;;;;;;;75.85;57.20;;;24.80;65.20;;;;;;4922540;28;91739;-76
2022/06/23 07:36:28;;;;;;;77.22;59.08;;;24.80;65.10;;;;;;4920085;28;90316;-77
2022/06/23 07:39:02;;;;;;;75.32;58.10;;;24.70;66.10;;;;;;4896448;28;90489;-77
2022/06/23 07:41:50;;;;;;;77.47;59.08;;;24.80;65.60;;;;;;4913800;28;90675;-76
2022/06/23 07:44:33;;;;;;;77.45;60.10;;;24.70;66.20;;;;;;4915790;28;89868;-77
2022/06/23 07:47:01;;;;;;;79.22;58.95;;;24.70;66.50;;;;;;4914962;28;91409;-78
2022/06/23 07:49:27;;;;;;;78.28;59.08;;;24.60;66.60;;;;;;4917304;28;90818;-78
2022/06/23 07:51:55;;;;;;;77.38;58.85;;;24.70;65.60;;;;;;4912112;28;90689;-77
2022/06/23 07:54:22;;;;;;;78.35;60.40;;;24.80;65.80;;;;;;4911904;28;90640;-75
2022/06/23 07:56:49;;;;;;;79.43;59.40;;;24.80;66.30;;;;;;4908684;28;91923;-75
2022/06/23 07:59:19;;;;;;;76.97;58.92;;;24.80;66.30;;;;;;4911456;28;89988;-75
2022/06/23 08:02:06;;;;;;;78.00;59.25;;;24.70;66.70;;;;;;4917262;28;89896;-78
2022/06/23 08:05:06;;;;;;;74.43;57.60;;;24.80;67.00;;;;;;4910523;28;90538;-76
2022/06/23 08:07:33;;;;;;;75.45;57.50;;;24.90;66.50;;;;;;4925444;28;89157;-77
2022/06/23 08:10:13;;;;;;;74.53;57.65;;;25.00;65.80;;;;;;4921214;28;89844;-75
2022/06/23 08:12:53;;;;;;;74.10;56.95;;;25.00;65.70;;;;;;4909426;28;91108;-78
2022/06/23 08:18:34;;;;;;;74.38;56.60;;;25.00;66.90;;;;;;4921450;28;89507;-76
2022/06/23 08:21:19;;;;;;;72.78;57.45;;;25.10;65.50;;;;;;4916653;28;89658;-76
2022/06/23 08:23:52;;;;;;;76.25;57.22;;;25.00;66.70;;;;;;4919049;28;90356;-76
2022/06/23 08:26:19;;;;;;;72.40;56.80;;;24.80;67.30;;;;;;4914834;28;93372;-76
2022/06/23 08:28:49;;;;;;;74.57;56.83;;;24.90;67.20;;;;;;4933974;28;91385;-76
2022/06/23 08:31:15;;;;;;;77.65;57.35;;;25.00;67.10;;;;;;4925014;28;90314;-75
2022/06/23 08:33:41;;;;;;;74.07;56.30;;;25.00;66.70;;;;;;4909196;28;91175;-75
2022/06/23 08:36:14;;;;;;;75.18;57.17;;;25.10;65.40;;;;;;4922683;28;90963;-76
2022/06/23 08:38:44;;;;;;;77.38;56.53;;;25.10;66.00;;;;;;4934514;28;90115;-75
2022/06/23 08:41:16;;;;;;;72.18;56.25;;;25.00;67.00;;;;;;4922035;28;91530;-80
2022/06/23 08:44:07;;;;;;;74.25;56.10;;;25.10;67.50;;;;;;4930047;28;90427;-76
2022/06/23 08:46:48;;;;;;;74.37;55.53;;;25.10;67.00;;;;;;4925946;28;90205;-73
2022/06/23 08:49:19;;;;;;;83.88;60.60;;;25.00;67.40;;;;;;4928189;28;93440;-76
2022/06/23 08:51:56;;;;;;;98.88;70.53;;;25.00;67.10;;;;;;4928918;28;89985;-77
2022/06/23 08:54:39;;;;;;;124.55;85.18;;;25.00;67.10;;;;;;4921596;28;89883;-75
2022/06/23 08:57:28;;;;;;;125.38;89.18;;;25.00;66.90;;;;;;4925313;28;90500;-76
2022/06/23 09:00:06;;;;;;;131.68;89.90;;;25.20;65.30;;;;;;4918623;28;89391;-73
2022/06/23 09:02:40;;;;;;;127.18;90.10;;;25.20;66.30;;;;;;4928312;28;91096;-73
2022/06/23 09:05:11;;;;;;;124.10;85.05;;;25.10;66.50;;;;;;4933831;28;90051;-73
2022/06/23 09:07:46;;;;;;;182.35;117.78;;;25.20;65.20;;;;;;4937038;28;92469;-74
2022/06/23 09:10:32;;;;;;;121.10;83.00;;;25.30;67.10;;;;;;4933792;28;91968;-75
2022/06/23 09:13:10;;;;;;;115.07;78.85;;;25.20;66.20;;;;;;4930569;28;91457;-72
2022/06/23 09:15:57;;;;;;;153.48;102.38;;;25.20;65.70;;;;;;4935100;28;90974;-74
2022/06/23 09:18:56;;;;;;;193.15;124.05;;;25.30;66.00;;;;;;4932341;28;89965;-72
2022/06/23 09:21:37;;;;;;;180.93;116.50;;;25.20;66.80;;;;;;4943651;28;90803;-75
2022/06/23 09:24:25;;;;;;;163.45;109.22;;;25.40;66.50;;;;;;4935076;28;89929;-75
2022/06/23 09:27:09;;;;;;;202.18;133.10;;;25.30;66.60;;;;;;4933178;28;89672;-75
2022/06/23 09:30:16;;;;;;;307.67;202.60;;;25.40;66.60;;;;;;4936747;28;90861;-74
2022/06/23 09:32:50;;;;;;;200.18;131.82;;;25.50;67.10;;;;;;4869032;28;90359;-73
2022/06/23 09:35:48;;;;;;;173.32;117.75;;;25.40;65.80;;;;;;4928503;28;92118;-74
2022/06/23 09:38:36;;;;;;;126.45;90.10;;;25.50;65.30;;;;;;4936889;28;90527;-74
2022/06/23 09:41:45;;;;;;;128.23;89.72;;;25.40;64.90;;;;;;4936794;28;92017;-75
2022/06/23 09:44:21;;;;;;;121.32;85.07;;;25.40;64.80;;;;;;4880412;28;91022;-75
2022/06/23 09:47:14;;;;;;;121.80;85.35;;;25.50;64.00;;;;;;4867217;28;91071;-76
2022/06/23 09:50:05;;;;;;;94.57;68.97;;;25.60;64.00;;;;;;4924356;28;90459;-74
2022/06/23 09:52:39;;;;;;;99.97;70.57;;;25.70;64.10;;;;;;4916173;28;95399;-73
2022/06/23 09:55:50;;;;;;;77.05;58.40;;;25.80;63.80;;;;;;4927996;28;89703;-72
2022/06/23 09:58:21;;;;;;;77.55;56.85;;;25.80;64.20;;;;;;4932660;28;90510;-73
2022/06/23 10:01:19;;;;;;;76.38;56.80;;;25.80;65.40;;;;;;4932946;28;89835;-74
2022/06/23 10:04:01;;;;;;;82.18;59.28;;;25.70;65.20;;;;;;4871255;28;92818;-73
2022/06/23 10:06:48;;;;;;;76.88;57.45;;;25.80;64.90;;;;;;4932739;28;90662;-71
2022/06/23 10:09:45;;;;;;;73.28;56.15;;;25.80;64.90;;;;;;4931891;28;91045;-73
2022/06/23 10:12:27;;;;;;;77.90;58.88;;;25.90;63.40;;;;;;4929221;28;89906;-71
2022/06/23 10:15:03;;;;;;;76.47;57.85;;;26.00;63.80;;;;;;4909037;28;95904;-73
2022/06/23 10:17:47;;;;;;;73.90;56.65;;;26.00;63.40;;;;;;4924515;28;91100;-71
2022/06/23 10:20:39;;;;;;;71.55;55.70;;;25.90;64.20;;;;;;4933294;28;90642;-71
2022/06/23 10:23:42;;;;;;;79.60;55.92;;;26.00;63.90;;;;;;4926487;28;92193;-72
2022/06/23 10:26:38;;;;;;;73.20;55.97;;;26.00;63.70;;;;;;4929963;28;90782;-72
2022/06/23 10:29:28;;;;;;;73.07;55.78;;;26.00;64.00;;;;;;4929834;28;91905;-72
2022/06/23 10:32:25;;;;;;;72.60;55.20;;;25.90;63.70;;;;;;4937074;28;91167;-73
2022/06/23 10:34:50;;;;;;;71.82;55.85;;;25.90;63.70;;;;;;4932043;28;90831;-71
2022/06/23 10:37:54;;;;;;;73.88;56.03;;;26.00;63.90;;;;;;4937265;28;92398;-72
2022/06/23 10:40:54;;;;;;;74.38;55.85;;;26.00;63.10;;;;;;4896933;28;94396;-73
2022/06/23 10:43:30;;;;;;;72.70;54.92;;;26.00;61.30;;;;;;4922621;28;90311;-75
2022/06/23 10:46:00;;;;;;;73.25;55.50;;;26.00;61.40;;;;;;4928642;28;92159;-75
2022/06/23 10:49:08;;;;;;;75.70;55.78;;;26.00;60.70;;;;;;4915588;28;90800;-75
2022/06/23 10:52:01;;;;;;;72.25;54.80;;;26.00;59.00;;;;;;4920481;28;90295;-76
2022/06/23 10:54:48;;;;;;;73.15;55.67;;;26.00;58.10;;;;;;4923530;28;91038;-78
2022/06/23 10:57:37;;;;;;;73.45;56.28;;;25.90;58.00;;;;;;4931492;28;89470;-73
2022/06/23 11:00:24;;;;;;;75.15;56.80;;;25.90;57.90;;;;;;4928620;28;91456;-72
2022/06/23 11:03:12;;;;;;;73.68;56.35;;;25.90;57.90;;;;;;4922837;28;91990;-72
2022/06/23 11:06:07;;;;;;;73.70;55.30;;;25.80;57.70;;;;;;4915123;28;91275;-70
2022/06/23 11:08:51;;;;;;;74.85;56.42;;;25.90;61.40;;;;;;4922478;28;94195;-71
2022/06/23 11:11:37;;;;;;;78.07;56.85;;;25.90;61.60;;;;;;4926802;28;90592;-72
2022/06/23 11:14:17;;;;;;;86.68;61.00;;;25.90;61.00;;;;;;4905812;28;91764;-72
2022/06/23 11:16:57;;;;;;;167.60;111.22;;;26.00;61.60;;;;;;4931211;28;92588;-73
2022/06/23 11:19:34;;;;;;;159.85;110.35;;;26.10;60.90;;;;;;4931302;28;89818;-71
2022/06/23 11:22:12;;;;;;;113.53;79.50;;;26.00;60.60;;;;;;4930323;28;91341;-70
2022/06/23 11:25:09;;;;;;;368.30;232.15;;;26.00;59.60;;;;;;4926853;28;90356;-73
2022/06/23 11:27:49;;;;;;;1627.45;872.00;;;26.00;61.00;;;;;;4923895;28;93254;-70
2022/06/23 11:30:36;;;;;;;700.23;471.67;;;26.00;62.80;;;;;;4901805;28;89924;-72
2022/06/23 11:33:30;;;;;;;669.22;456.77;;;26.10;62.80;;;;;;4923164;28;90341;-72
2022/06/23 11:36:16;;;;;;;1175.35;748.55;;;26.10;62.80;;;;;;4936134;28;90112;-73
2022/06/23 11:39:00;;;;;;;1188.20;750.75;;;26.10;63.90;;;;;;4917884;28;91081;-73
2022/06/23 11:41:58;;;;;;;1386.70;823.00;;;26.10;63.50;;;;;;4932809;28;90631;-73
2022/06/23 11:45:03;;;;;;;196.15;126.25;;;26.10;61.60;;;;;;4924076;28;92332;-74
2022/06/23 11:47:47;;;;;;;159.18;105.70;;;26.00;61.20;;;;;;4869003;28;97989;-73
2022/06/23 11:50:34;;;;;;;143.57;92.53;;;26.00;61.20;;;;;;4851205;28;90366;-74
2022/06/23 11:53:35;;;;;;;141.52;91.75;;;26.00;61.70;;;;;;4907646;28;92025;-72
2022/06/23 11:56:07;;;;;;;;;;;26.00;62.20;;;;;;4926342;28;92604;-73
2022/06/23 11:59:00;;;;;;;138.68;92.30;;;26.00;61.80;;;;;;4929582;28;90818;-74
2022/06/23 12:01:28;;;;;;;138.25;93.15;;;26.10;61.90;;;;;;4931156;28;91893;-73
2022/06/23 12:04:04;;;;;;;131.82;88.88;;;26.00;62.00;;;;;;4932152;28;92692;-72
2022/06/23 12:06:47;;;;;;;130.13;87.05;;;26.10;61.60;;;;;;4927355;28;92797;-72
2022/06/23 12:09:41;;;;;;;134.80;88.43;;;26.10;61.60;;;;;;4930389;28;90967;-73
2022/06/23 12:12:07;;;;;;;129.02;86.63;;;26.00;61.70;;;;;;4935386;28;90364;-74
2022/06/23 12:14:34;;;;;;;134.95;86.60;;;26.00;61.40;;;;;;4931771;28;89527;-73
2022/06/23 12:17:23;;;;;;;126.68;86.07;;;26.00;61.30;;;;;;4936720;28;90119;-74
2022/06/23 12:20:04;;;;;;;121.45;84.72;;;26.00;61.30;;;;;;4930414;28;90397;-71
2022/06/23 12:22:39;;;;;;;130.68;86.63;;;26.00;61.20;;;;;;4933400;28;92084;-76
2022/06/23 12:25:17;;;;;;;122.13;83.90;;;26.00;61.60;;;;;;4930899;28;90890;-76
2022/06/23 12:27:59;;;;;;;118.13;82.90;;;26.00;61.20;;;;;;4931013;28;90600;-75
2022/06/23 12:30:27;;;;;;;124.88;83.35;;;26.10;60.60;;;;;;4931230;28;91390;-75
2022/06/23 12:33:01;;;;;;;120.32;82.53;;;26.10;61.20;;;;;;4927291;28;90635;-71
2022/06/23 12:35:53;;;;;;;127.28;84.07;;;26.00;61.70;;;;;;4929676;28;89824;-74
2022/06/23 12:38:29;;;;;;;121.20;82.68;;;26.00;61.40;;;;;;4910845;28;89795;-73
2022/06/23 12:41:08;;;;;;;114.80;82.53;;;26.00;61.60;;;;;;4908507;28;92302;-75
2022/06/23 12:43:49;;;;;;;120.55;83.10;;;26.00;60.40;;;;;;4917828;28;90713;-76
2022/06/23 12:46:25;;;;;;;128.10;82.03;;;26.00;59.60;;;;;;4910984;28;91084;-74
2022/06/23 12:49:03;;;;;;;118.78;82.10;;;26.00;58.50;;;;;;4919847;28;92140;-76
2022/06/23 12:51:47;;;;;;;116.22;80.40;;;26.00;57.80;;;;;;4926843;28;90833;-75
2022/06/23 12:54:31;;;;;;;113.45;80.47;;;26.00;56.00;;;;;;4911896;28;90448;-75
2022/06/23 12:57:16;;;;;;;117.55;78.72;;;25.90;55.40;;;;;;4931898;28;90114;-75
2022/06/23 12:59:50;;;;;;;115.47;79.40;;;25.80;54.30;;;;;;4923307;28;89963;-71
2022/06/23 13:02:27;;;;;;;111.03;78.22;;;25.80;54.10;;;;;;4925853;28;91827;-71
2022/06/23 13:05:02;;;;;;;107.55;78.10;;;25.80;53.90;;;;;;4912295;28;97029;-76
2022/06/23 13:07:41;;;;;;;116.30;79.85;;;25.80;54.00;;;;;;4935559;28;91554;-77
2022/06/23 13:10:36;;;;;;;109.38;77.38;;;25.80;53.50;;;;;;4926850;28;90561;-76
2022/06/23 13:13:13;;;;;;;113.43;79.00;;;25.80;53.60;;;;;;4933853;28;90022;-77
2022/06/23 13:16:02;;;;;;;107.03;78.20;;;25.80;53.50;;;;;;4920662;28;98372;-74
2022/06/23 13:18:47;;;;;;;110.13;79.28;;;25.80;53.80;;;;;;4933332;28;90109;-76
2022/06/23 13:21:27;;;;;;;109.78;78.38;;;25.80;54.50;;;;;;4926669;28;92110;-72
2022/06/23 13:24:02;;;;;;;109.45;78.82;;;25.80;53.90;;;;;;4928658;28;90136;-76
2022/06/23 13:26:34;;;;;;;106.80;77.40;;;25.80;53.70;;;;;;4933652;28;90364;-75
2022/06/23 13:29:08;;;;;;;108.50;77.25;;;25.80;53.80;;;;;;4929626;28;90188;-73
2022/06/23 13:31:45;;;;;;;106.72;77.65;;;25.80;53.50;;;;;;4928649;28;91142;-74
2022/06/23 13:34:20;;;;;;;106.88;76.53;;;25.90;53.30;;;;;;4932653;28;90476;-73
2022/06/23 13:37:01;;;;;;;108.97;76.88;;;25.80;53.40;;;;;;4927839;28;90407;-73
2022/06/23 13:39:43;;;;;;;108.28;76.47;;;25.80;53.70;;;;;;4929612;28;93473;-72
2022/06/23 13:42:24;;;;;;;106.03;74.28;;;25.90;53.30;;;;;;4928353;28;92068;-73